Time;durP1;ratioP1;P1;durP2;ratioP2;P2;SDS_P1;SDS_P2;PMS_P1;PMS_P2;Temp;Humidity;BMP_temperature;BMP_pressure;BME280_temperature;BME280_humidity;BME280_pressure;Samples;Min_cycle;Max_cycle;Signal;HPM_P1;HPM_P2
2022/09/15 00:00:59;;;;;;;5.03;3.25;;;;;;;19.87;86.95;100221.34;5029511;28;20054;-64
2022/09/15 00:03:27;;;;;;;5.00;2.85;;;;;;;19.69;87.28;100220.38;4999969;28;20053;-65
2022/09/15 00:05:54;;;;;;;5.30;3.03;;;;;;;19.84;86.99;100216.50;4982615;28;20046;-65
2022/09/15 00:08:22;;;;;;;4.55;2.83;;;;;;;20.31;85.17;100220.47;4999460;28;20541;-65
2022/09/15 00:10:51;;;;;;;3.65;2.38;;;;;;;20.34;82.88;100220.50;5008315;28;20063;-65
2022/09/15 00:13:19;;;;;;;3.92;2.50;;;;;;;20.07;85.20;100219.06;5001447;28;20061;-65
2022/09/15 00:15:47;;;;;;;3.60;2.33;;;;;;;20.33;83.91;100221.66;4998296;28;20112;-65
2022/09/15 00:18:14;;;;;;;4.20;2.33;;;;;;;20.27;82.59;100220.44;4995974;28;20046;-65
2022/09/15 00:20:44;;;;;;;2.70;2.00;;;;;;;20.17;81.87;100209.19;5008806;28;20049;-65
2022/09/15 00:23:13;;;;;;;3.78;2.03;;;;;;;20.19;82.91;100221.56;4998411;28;20050;-65
2022/09/15 00:25:45;;;;;;;5.68;2.08;;;;;;;20.09;83.04;100217.50;4996365;28;20066;-64
2022/09/15 00:28:14;;;;;;;3.10;2.00;;;;;;;20.36;81.66;100228.50;4998452;28;20058;-64
2022/09/15 00:30:43;;;;;;;3.53;2.30;;;;;;;19.95;83.05;100227.78;4998137;28;20050;-64
2022/09/15 00:33:11;;;;;;;2.88;1.80;;;;;;;19.82;83.95;100218.09;4999395;28;20042;-64
2022/09/15 00:35:40;;;;;;;3.58;2.00;;;;;;;20.10;83.57;100226.69;4999100;28;20058;-64
2022/09/15 00:38:09;;;;;;;3.50;1.90;;;;;;;20.10;81.48;100216.28;4998226;28;20054;-65
2022/09/15 00:40:43;;;;;;;3.88;2.08;;;;;;;19.71;83.05;100222.78;5012936;28;20501;-65
2022/09/15 00:43:11;;;;;;;3.70;2.00;;;;;;;19.25;86.61;100221.53;4998793;28;20046;-66
2022/09/15 00:45:39;;;;;;;4.60;2.10;;;;;;;19.30;87.57;100226.78;4997978;28;20054;-65
2022/09/15 00:48:11;;;;;;;4.03;2.25;;;;;;;19.31;86.93;100232.00;5003901;28;20054;-65
2022/09/15 00:50:40;;;;;;;5.32;2.10;;;;;;;19.18;86.69;100233.41;5011643;28;20057;-66
2022/09/15 00:53:08;;;;;;;2.60;1.60;;;;;;;19.49;86.31;100240.56;4997764;28;20054;-66
2022/09/15 00:55:46;;;;;;;4.10;2.05;;;;;;;19.67;85.60;100239.53;5028396;28;20410;-64
2022/09/15 00:58:20;;;;;;;3.92;2.42;;;;;;;19.48;86.18;100245.34;5007224;28;20042;-65
2022/09/15 01:01:02;;;;;;;8.90;3.40;;;;;;;19.51;85.85;100247.34;4998210;28;20430;-65
2022/09/15 01:03:31;;;;;;;5.75;2.55;;;;;;;19.75;85.08;100259.97;4996628;28;20042;-67
2022/09/15 01:06:04;;;;;;;3.55;2.30;;;;;;;19.82;83.95;100254.44;4999699;28;20474;-65
2022/09/15 01:08:35;;;;;;;3.58;2.15;;;;;;;19.88;84.02;100253.69;4996424;28;20054;-65
2022/09/15 01:11:02;;;;;;;5.13;2.60;;;;;;;20.13;82.85;100259.47;4996166;28;20050;-65
2022/09/15 01:13:29;;;;;;;5.82;2.97;;;;;;;19.77;84.00;100263.19;4997810;28;20050;-65
2022/09/15 01:16:06;;;;;;;5.72;3.10;;;;;;;19.64;84.40;100273.03;4984137;28;20054;-65
2022/09/15 01:19:09;;;;;;;5.72;3.40;;;;;;;19.11;87.09;100263.28;4997388;28;20510;-65
2022/09/15 01:21:42;;;;;;;6.80;4.20;;;;;;;18.99;87.54;100278.25;4995846;28;20065;-65
2022/09/15 01:24:15;;;;;;;5.93;3.85;;;;;;;18.77;90.06;100268.84;5002782;28;20057;-65
2022/09/15 01:27:07;;;;;;;5.60;3.58;;;;;;;18.97;89.34;100264.69;5004316;28;20050;-65
2022/09/15 01:30:03;;;;;;;5.47;2.95;;;;;;;19.17;88.15;100262.53;5008508;28;20046;-65
2022/09/15 01:35:56;;;;;;;4.88;2.70;;;;;;;19.12;87.39;100265.69;4992267;28;20053;-66
2022/09/15 01:38:32;;;;;;;5.25;2.90;;;;;;;19.04;88.30;100269.56;4976605;28;20046;-66
2022/09/15 01:41:04;;;;;;;5.40;2.78;;;;;;;19.02;88.08;100271.94;4985233;28;20053;-66
2022/09/15 01:43:38;;;;;;;4.60;2.80;;;;;;;18.99;88.04;100276.28;4995527;28;20503;-66
2022/09/15 01:46:06;;;;;;;4.90;3.13;;;;;;;18.98;87.68;100277.50;4995819;28;20413;-66
2022/09/15 01:48:34;;;;;;;5.25;3.10;;;;;;;19.07;88.89;100275.19;4995161;28;20823;-66
2022/09/15 01:51:02;;;;;;;4.97;2.97;;;;;;;18.82;89.32;100288.03;4995294;28;20054;-66
2022/09/15 01:53:30;;;;;;;5.00;2.70;;;;;;;18.94;88.92;100278.59;4997474;28;20050;-66
2022/09/15 01:56:01;;;;;;;4.05;2.60;;;;;;;18.51;90.24;100271.69;4990724;28;20057;-65
2022/09/15 01:58:28;;;;;;;3.63;1.92;;;;;;;18.69;90.39;100280.28;4996058;28;20058;-65
2022/09/15 02:00:59;;;;;;;3.88;2.00;;;;;;;19.01;88.88;100273.13;4996888;28;20450;-65
2022/09/15 02:03:33;;;;;;;3.90;1.75;;;;;;;18.64;88.33;100273.03;4996897;28;20118;-65
2022/09/15 02:06:06;;;;;;;3.38;2.00;;;;;;;18.66;89.84;100279.03;4997333;28;20054;-65
2022/09/15 02:08:46;;;;;;;2.72;1.83;;;;;;;19.22;87.76;100287.31;4997510;28;20050;-65
2022/09/15 02:11:20;;;;;;;7.05;3.55;;;;;;;18.88;88.44;100275.34;5026966;28;20058;-65
2022/09/15 02:14:27;;;;;;;7.13;3.25;;;;;;;19.08;89.69;100274.00;4995528;28;20042;-65
2022/09/15 02:16:54;;;;;;;7.93;4.57;;;;;;;18.88;89.67;100278.13;4980646;28;20080;-66
2022/09/15 02:19:39;;;;;;;9.30;6.50;;;;;;;18.87;88.51;100281.31;4977509;28;20411;-66
2022/09/15 02:22:16;;;;;;;15.23;10.20;;;;;;;18.16;91.36;100281.44;4992394;28;20054;-65
2022/09/15 02:24:48;;;;;;;12.45;9.45;;;;;;;18.14;92.89;100286.59;4994000;28;20061;-65
2022/09/15 02:27:22;;;;;;;13.02;9.88;;;;;;;18.12;91.99;100280.59;4993542;28;20046;-66
2022/09/15 02:29:52;;;;;;;14.90;10.40;;;;;;;18.24;92.88;100277.59;4996660;28;20050;-65
2022/09/15 02:32:22;;;;;;;14.35;10.75;;;;;;;18.72;90.28;100277.56;4994779;28;20054;-66
2022/09/15 02:34:50;;;;;;;15.48;10.68;;;;;;;18.56;88.55;100284.47;4978706;28;20064;-65
2022/09/15 02:37:20;;;;;;;18.85;11.82;;;;;;;18.49;88.85;100276.81;4996883;28;20081;-65
2022/09/15 02:39:50;;;;;;;17.00;13.88;;;;;;;18.29;87.77;100274.50;4995251;28;20050;-65
2022/09/15 02:42:25;;;;;;;17.38;12.57;;;;;;;18.50;87.73;100284.00;4994685;28;20059;-66
2022/09/15 02:44:52;;;;;;;17.45;13.38;;;;;;;18.18;88.31;100273.53;4994886;28;20043;-65
2022/09/15 02:47:20;;;;;;;15.30;12.75;;;;;;;17.90;89.57;100282.25;5011263;28;20421;-65
2022/09/15 02:49:47;;;;;;;16.48;12.18;;;;;;;18.06;90.13;100282.09;5015880;28;20512;-66
2022/09/15 02:52:15;;;;;;;13.57;10.70;;;;;;;17.64;91.14;100290.53;5013282;28;20050;-66
2022/09/15 02:54:42;;;;;;;14.57;10.43;;;;;;;18.09;89.75;100284.13;5013340;28;20065;-66
2022/09/15 02:57:09;;;;;;;14.82;11.18;;;;;;;18.48;87.24;100289.13;5012552;28;20049;-66
2022/09/15 03:02:40;;;;;;;12.75;9.18;;;;;;;18.16;87.64;100284.25;4954753;28;20190;-66
2022/09/15 03:05:09;;;;;;;14.02;9.52;;;;;;;18.45;85.34;100289.09;4987694;28;20050;-66
2022/09/15 03:07:37;;;;;;;15.02;10.23;;;;;;;17.80;87.29;100288.44;4996980;28;20054;-66
2022/09/15 03:10:06;;;;;;;11.90;8.38;;;;;;;18.42;86.89;100289.84;4996178;28;20061;-66
2022/09/15 03:12:53;;;;;;;11.40;8.27;;;;;;;18.18;84.42;100293.84;5006014;28;20049;-66
2022/09/15 03:15:22;;;;;;;10.48;7.57;;;;;;;18.15;86.38;100289.00;5013534;28;20501;-66
2022/09/15 03:17:49;;;;;;;8.73;6.30;;;;;;;17.92;84.89;100289.03;4975408;28;20057;-66
2022/09/15 03:20:22;;;;;;;9.55;6.80;;;;;;;18.25;83.69;100282.81;4976747;28;20054;-66
2022/09/15 03:22:49;;;;;;;9.88;5.57;;;;;;;18.43;82.29;100286.69;4979907;28;20051;-67
2022/09/15 03:25:17;;;;;;;7.18;4.93;;;;;;;18.54;81.03;100284.03;5025806;28;20046;-67
2022/09/15 03:27:45;;;;;;;8.07;5.43;;;;;;;18.56;79.12;100290.06;4996578;28;20058;-67
2022/09/15 03:30:12;;;;;;;8.45;4.88;;;;;;;18.80;79.08;100286.78;4994196;28;20442;-67
2022/09/15 03:32:40;;;;;;;7.95;5.35;;;;;;;18.46;77.66;100290.72;4995765;28;20057;-67
2022/09/15 03:35:07;;;;;;;7.75;5.03;;;;;;;18.29;78.15;100291.22;5007343;28;20528;-67
2022/09/15 03:37:36;;;;;;;10.57;5.57;;;;;;;18.24;78.92;100297.09;4993440;28;20046;-66
2022/09/15 03:40:04;;;;;;;7.65;5.13;;;;;;;18.61;79.25;100296.13;4994558;28;20398;-67
2022/09/15 03:42:31;;;;;;;8.18;4.60;;;;;;;19.09;78.01;100286.78;4995480;28;20061;-66
2022/09/15 03:44:58;;;;;;;8.57;5.18;;;;;;;18.65;76.07;100288.63;4996495;28;20053;-66
2022/09/15 03:47:26;;;;;;;7.35;5.05;;;;;;;18.50;79.51;100286.78;4995347;28;20399;-66
2022/09/15 03:49:54;;;;;;;8.23;5.03;;;;;;;18.49;79.31;100289.97;4995733;28;20053;-66
2022/09/15 03:52:22;;;;;;;10.27;6.90;;;;;;;17.72;80.73;100287.50;4995121;28;20050;-66
2022/09/15 03:54:49;;;;;;;10.07;6.40;;;;;;;17.48;83.25;100293.44;4996409;28;20049;-67
2022/09/15 03:57:17;;;;;;;7.40;5.40;;;;;;;17.79;85.11;100284.84;4995092;28;20067;-67
2022/09/15 03:59:44;;;;;;;9.30;5.55;;;;;;;18.22;81.87;100302.28;5011260;28;20046;-66
2022/09/15 04:02:11;;;;;;;9.60;6.05;;;;;;;18.04;79.36;100288.06;4998341;28;20517;-66
2022/09/15 04:04:38;;;;;;;8.73;5.90;;;;;;;17.98;80.74;100307.06;4996207;28;20038;-66
2022/09/15 04:07:07;;;;;;;12.15;6.90;;;;;;;17.79;81.10;100300.75;4996126;28;20469;-67
2022/09/15 04:09:36;;;;;;;10.80;6.57;;;;;;;17.64;82.93;100304.47;4998670;28;20070;-66
2022/09/15 04:12:03;;;;;;;11.23;6.70;;;;;;;17.89;83.24;100300.13;4998691;28;20524;-67
2022/09/15 04:14:30;;;;;;;11.02;6.68;;;;;;;17.74;81.85;100299.09;4998913;28;20431;-67
2022/09/15 04:16:58;;;;;;;10.90;7.07;;;;;;;17.72;81.27;100308.97;4998081;28;20057;-66
2022/09/15 04:19:25;;;;;;;11.80;7.43;;;;;;;17.70;81.28;100308.53;4997394;28;20054;-66
2022/09/15 04:21:52;;;;;;;10.63;6.82;;;;;;;17.73;82.09;100305.81;4998510;28;20057;-66
2022/09/15 04:24:19;;;;;;;10.57;6.30;;;;;;;18.28;82.25;100312.72;4999078;28;20062;-67
2022/09/15 04:26:47;;;;;;;12.13;7.80;;;;;;;17.50;82.02;100318.13;5004833;28;20145;-66
2022/09/15 04:29:16;;;;;;;11.55;7.43;;;;;;;17.34;82.59;100326.56;4998543;28;20054;-66
2022/09/15 04:31:43;;;;;;;12.57;8.90;;;;;;;17.28;82.82;100329.97;5003737;28;20054;-66
2022/09/15 04:34:11;;;;;;;12.80;7.53;;;;;;;17.12;84.34;100324.50;5016680;28;20520;-66
2022/09/15 04:36:38;;;;;;;14.48;7.55;;;;;;;17.26;85.81;100324.78;5004403;28;20053;-66
2022/09/15 04:39:05;;;;;;;13.30;9.00;;;;;;;17.24;83.46;100329.94;4998031;28;20061;-67
2022/09/15 04:41:33;;;;;;;15.43;9.07;;;;;;;17.31;82.87;100337.63;4998623;28;20418;-66
2022/09/15 04:44:01;;;;;;;13.88;9.32;;;;;;;17.09;83.40;100327.19;4998317;28;20050;-67
2022/09/15 04:46:28;;;;;;;14.52;10.60;;;;;;;16.83;84.74;100337.03;5006545;28;20058;-67
2022/09/15 04:48:56;;;;;;;13.32;10.90;;;;;;;16.72;86.50;100337.94;4980540;28;20050;-66
2022/09/15 04:51:23;;;;;;;14.32;9.10;;;;;;;17.00;85.32;100341.34;4995586;28;20081;-67
2022/09/15 04:53:51;;;;;;;13.82;9.70;;;;;;;16.88;85.32;100344.25;4998275;28;20046;-66
2022/09/15 04:56:20;;;;;;;23.67;9.70;;;;;;;17.15;84.75;100345.25;4987396;28;20061;-66
2022/09/15 04:58:56;;;;;;;16.85;9.95;;;;;;;17.35;81.41;100361.56;4996632;28;20062;-66
2022/09/15 05:01:32;;;;;;;15.75;11.88;;;;;;;16.61;83.88;100356.38;4989655;28;20057;-66
2022/09/15 05:04:04;;;;;;;17.77;12.35;;;;;;;16.30;85.11;100367.53;4997936;28;20053;-66
2022/09/15 05:06:33;;;;;;;19.13;11.57;;;;;;;16.42;85.68;100368.19;4998629;28;20050;-67
2022/09/15 05:09:02;;;;;;;20.00;11.88;;;;;;;16.52;85.03;100366.88;4998113;28;20049;-66
2022/09/15 05:11:36;;;;;;;18.73;12.40;;;;;;;16.46;85.07;100374.69;4997580;28;20062;-66
2022/09/15 05:14:03;;;;;;;13.88;10.50;;;;;;;16.73;86.28;100376.53;4998002;28;20042;-66
2022/09/15 05:16:31;;;;;;;19.08;12.05;;;;;;;16.83;85.03;100380.72;5004490;28;20050;-66
2022/09/15 05:19:01;;;;;;;18.80;11.65;;;;;;;17.05;83.74;100379.22;4996814;28;20403;-67
2022/09/15 05:21:29;;;;;;;19.95;11.73;;;;;;;17.10;84.51;100387.28;4996721;28;20119;-66
2022/09/15 05:23:57;;;;;;;16.05;11.82;;;;;;;16.65;83.98;100385.88;4997514;28;20058;-66
2022/09/15 05:26:26;;;;;;;16.08;11.23;;;;;;;17.00;83.15;100394.22;4998176;28;20038;-66
2022/09/15 05:28:55;;;;;;;18.50;12.50;;;;;;;17.41;84.09;100398.28;4990386;28;20516;-66
2022/09/15 05:31:35;;;;;;;16.13;11.93;;;;;;;16.76;82.66;100392.50;5006876;28;20058;-66
2022/09/15 05:34:04;;;;;;;22.33;13.32;;;;;;;16.38;84.77;100395.13;5016078;28;20384;-66
2022/09/15 05:36:32;;;;;;;16.40;12.93;;;;;;;16.77;87.13;100396.88;5005535;28;20053;-66
2022/09/15 05:39:00;;;;;;;17.17;12.25;;;;;;;16.96;82.04;100403.66;4997488;28;20410;-66
2022/09/15 05:41:28;;;;;;;16.27;12.18;;;;;;;16.62;84.63;100410.81;4996610;28;20055;-66
2022/09/15 05:43:56;;;;;;;14.45;10.90;;;;;;;17.07;82.55;100410.28;4995977;28;20062;-66
2022/09/15 05:46:27;;;;;;;16.95;11.77;;;;;;;16.34;86.20;100410.91;5006536;28;20039;-66
2022/09/15 05:48:56;;;;;;;17.73;12.38;;;;;;;16.42;86.61;100409.13;4995116;28;20057;-66
2022/09/15 05:51:24;;;;;;;19.15;12.60;;;;;;;17.04;86.13;100403.44;4995324;28;20054;-66
2022/09/15 05:53:51;;;;;;;20.50;13.60;;;;;;;17.39;81.60;100406.19;4997406;28;20057;-67
2022/09/15 05:56:19;;;;;;;19.00;13.07;;;;;;;17.11;84.83;100408.34;4996547;28;20061;-67
2022/09/15 05:58:47;;;;;;;16.80;12.45;;;;;;;17.17;82.26;100407.72;4997249;28;20130;-67
2022/09/15 06:01:16;;;;;;;17.63;12.00;;;;;;;17.05;82.48;100407.84;4996585;28;20047;-67
2022/09/15 06:03:44;;;;;;;20.77;14.43;;;;;;;16.89;82.74;100413.44;4996855;28;20054;-67
2022/09/15 06:06:12;;;;;;;22.13;15.68;;;;;;;16.82;85.12;100418.84;4996542;28;20050;-66
2022/09/15 06:08:42;;;;;;;22.42;16.10;;;;;;;16.41;85.47;100424.16;4997137;28;20054;-68
2022/09/15 06:11:22;;;;;;;22.25;16.00;;;;;;;15.87;89.34;100435.06;4994353;28;20526;-67
2022/09/15 06:13:49;;;;;;;20.77;16.17;;;;;;;16.31;90.00;100435.81;4974238;28;20054;-68
2022/09/15 06:16:20;;;;;;;27.05;16.30;;;;;;;16.32;87.03;100435.47;4993344;28;20045;-66
2022/09/15 06:18:47;;;;;;;;;;;;;;;16.16;87.67;100437.41;4991984;28;20062;-67
2022/09/15 06:21:20;;;;;;;28.98;18.00;;;;;;;16.00;89.16;100444.13;5026567;28;19933;-69
2022/09/15 06:23:54;;;;;;;26.55;18.20;;;;;;;16.73;89.78;100440.50;4996607;28;20046;-68
2022/09/15 06:26:22;;;;;;;24.98;18.05;;;;;;;16.68;85.51;100449.09;4995904;28;20453;-68
2022/09/15 06:28:54;;;;;;;28.30;16.95;;;;;;;16.66;87.74;100448.69;4994038;28;20073;-67
2022/09/15 06:31:22;;;;;;;28.88;18.13;;;;;;;16.79;86.35;100450.19;4987939;28;20058;-67
2022/09/15 06:33:52;;;;;;;31.63;18.08;;;;;;;16.80;86.24;100453.78;5010532;28;20058;-67
2022/09/15 06:36:21;;;;;;;24.70;16.90;;;;;;;17.29;83.12;100460.47;4995685;28;20051;-67
2022/09/15 06:38:50;;;;;;;27.17;18.55;;;;;;;17.27;83.58;100467.56;4985318;28;20563;-69
2022/09/15 06:41:17;;;;;;;31.63;19.67;;;;;;;16.27;84.79;100465.50;4992012;28;20116;-66
2022/09/15 06:43:45;;;;;;;30.40;20.45;;;;;;;15.78;88.45;100464.97;4987936;28;20051;-65
2022/09/15 06:46:15;;;;;;;31.67;19.38;;;;;;;16.55;87.60;100466.25;4990581;28;20050;-65
2022/09/15 06:48:43;;;;;;;31.45;20.60;;;;;;;16.59;85.07;100472.72;4994537;28;20053;-66
2022/09/15 06:51:16;;;;;;;30.92;18.85;;;;;;;16.21;86.18;100478.06;4990804;28;20050;-66
2022/09/15 06:53:44;;;;;;;33.13;20.77;;;;;;;16.33;84.49;100480.75;4995152;28;20065;-66
2022/09/15 06:56:13;;;;;;;31.40;21.33;;;;;;;16.10;84.34;100476.94;5000506;28;21887;-65
2022/09/15 06:58:41;;;;;;;36.92;20.85;;;;;;;16.04;85.18;100483.94;4993024;28;21471;-66
2022/09/15 07:01:11;;;;;;;39.65;23.27;;;;;;;15.68;87.22;100485.72;4994022;28;20054;-68
2022/09/15 07:03:41;;;;;;;34.90;21.87;;;;;;;15.79;87.23;100484.03;4990927;28;20077;-66
2022/09/15 07:06:10;;;;;;;34.03;21.98;;;;;;;15.82;86.71;100495.59;4992669;28;20301;-66
2022/09/15 07:08:39;;;;;;;38.45;23.35;;;;;;;15.93;86.21;100488.41;4975141;28;20058;-65
2022/09/15 07:11:08;;;;;;;39.65;22.88;;;;;;;15.73;87.34;100495.75;4986727;28;20061;-65
2022/09/15 07:13:36;;;;;;;33.58;21.65;;;;;;;16.13;86.51;100499.28;4994952;28;20050;-66
2022/09/15 07:16:05;;;;;;;37.00;21.88;;;;;;;16.06;85.38;100493.53;4993571;28;20049;-66
2022/09/15 07:18:33;;;;;;;34.22;20.92;;;;;;;16.06;85.11;100501.03;4990649;28;20050;-65
2022/09/15 07:21:09;;;;;;;34.22;20.65;;;;;;;16.22;85.52;100510.22;5006648;28;20406;-65
2022/09/15 07:23:36;;;;;;;42.30;22.13;;;;;;;15.95;85.08;100503.56;4995732;28;20046;-65
2022/09/15 07:26:14;;;;;;;35.72;22.88;;;;;;;15.99;85.01;100507.22;4992810;28;20042;-66
2022/09/15 07:28:43;;;;;;;38.50;22.17;;;;;;;16.09;85.59;100508.69;4989747;28;20050;-66
2022/09/15 07:31:14;;;;;;;37.65;20.67;;;;;;;16.42;83.78;100509.19;4989971;28;20054;-65
2022/09/15 07:33:44;;;;;;;30.33;20.50;;;;;;;16.92;82.02;100502.94;4991954;28;20057;-65
2022/09/15 07:36:12;;;;;;;31.65;19.23;;;;;;;17.57;79.38;100504.88;4989644;28;20069;-69
2022/09/15 07:38:41;;;;;;;32.90;18.10;;;;;;;17.89;76.92;100509.94;4992393;28;20055;-66
2022/09/15 07:41:23;;;;;;;33.95;18.50;;;;;;;18.08;74.71;100513.88;4988108;28;20057;-65
2022/09/15 07:43:53;;;;;;;33.03;19.55;;;;;;;17.45;76.47;100508.53;4995194;28;20050;-65
2022/09/15 07:46:22;;;;;;;31.93;18.93;;;;;;;17.69;75.36;100522.25;4993113;28;20046;-66
2022/09/15 07:48:51;;;;;;;32.33;19.70;;;;;;;17.48;75.52;100516.22;4960985;28;20313;-66
2022/09/15 07:51:19;;;;;;;;;;;;;;;17.34;76.97;100527.00;4996501;28;20512;-65
2022/09/15 07:53:47;;;;;;;39.97;19.10;;;;;;;17.95;75.06;100524.38;4985988;28;19922;-65
2022/09/15 07:56:18;;;;;;;35.28;20.42;;;;;;;18.54;72.89;100521.16;5008359;28;20045;-66
2022/09/15 07:58:46;;;;;;;33.17;17.60;;;;;;;18.46;72.42;100531.38;5000563;28;20046;-64
2022/09/15 08:01:15;;;;;;;34.50;19.77;;;;;;;18.17;72.24;100528.38;5005426;28;20068;-65
2022/09/15 08:03:45;;;;;;;31.63;18.15;;;;;;;18.19;72.97;100526.03;4982120;28;20046;-64
2022/09/15 08:06:13;;;;;;;30.88;17.95;;;;;;;18.34;70.68;100533.50;4986466;28;20049;-66
2022/09/15 08:08:42;;;;;;;35.15;17.45;;;;;;;18.32;70.66;100535.84;4993804;28;20436;-65
2022/09/15 08:11:13;;;;;;;32.15;17.77;;;;;;;18.13;70.77;100527.53;4992756;28;20050;-65
2022/09/15 08:13:46;;;;;;;27.83;16.25;;;;;;;18.29;71.68;100531.03;4995804;28;20069;-66
2022/09/15 08:16:16;;;;;;;25.80;15.75;;;;;;;18.54;69.33;100535.91;4992756;28;20528;-65
2022/09/15 08:18:44;;;;;;;31.92;14.73;;;;;;;19.02;68.46;100528.78;4990927;28;20264;-65
2022/09/15 08:21:21;;;;;;;26.25;12.98;;;;;;;18.87;66.79;100541.69;5003293;28;20066;-65
2022/09/15 08:23:50;;;;;;;31.85;15.15;;;;;;;18.68;66.26;100536.16;4988148;28;20065;-66
2022/09/15 08:26:17;;;;;;;23.10;14.05;;;;;;;18.85;66.38;100538.44;4991561;28;20050;-65
2022/09/15 08:28:45;;;;;;;22.48;12.13;;;;;;;18.79;65.42;100548.31;5001288;28;20510;-66
2022/09/15 08:31:13;;;;;;;26.75;11.18;;;;;;;19.06;64.69;100558.34;4993869;28;20049;-65
2022/09/15 08:33:41;;;;;;;18.25;11.10;;;;;;;19.09;65.73;100562.34;4997782;28;20050;-65
2022/09/15 08:36:12;;;;;;;26.25;11.40;;;;;;;19.75;63.70;100565.38;4969330;28;20047;-63
2022/09/15 08:38:43;;;;;;;26.13;10.32;;;;;;;19.62;63.46;100561.22;4992515;28;20046;-66
2022/09/15 08:41:19;;;;;;;19.65;10.50;;;;;;;19.45;62.21;100574.94;4989448;28;20417;-66
2022/09/15 08:43:48;;;;;;;21.08;11.13;;;;;;;19.30;64.16;100567.50;4996582;28;20050;-66
2022/09/15 08:46:21;;;;;;;20.60;10.30;;;;;;;19.17;63.48;100583.66;4993592;28;20425;-64
2022/09/15 08:48:54;;;;;;;21.85;9.18;;;;;;;19.71;62.08;100575.72;4999633;28;20656;-65
2022/09/15 08:51:48;;;;;;;18.60;10.00;;;;;;;19.80;61.87;100573.47;4992180;28;20390;-66
2022/09/15 08:54:20;;;;;;;21.38;10.45;;;;;;;19.62;61.73;100575.19;4988501;28;20062;-65
2022/09/15 08:56:47;;;;;;;18.25;9.00;;;;;;;20.15;60.51;100571.09;5015820;28;20054;-65
2022/09/15 08:59:16;;;;;;;16.23;6.80;;;;;;;20.03;59.90;100578.97;4972148;28;20058;-64
2022/09/15 09:01:53;;;;;;;11.43;5.90;;;;;;;19.68;60.87;100581.28;5014666;28;20054;-65
2022/09/15 09:04:42;;;;;;;12.70;6.50;;;;;;;19.84;59.18;100577.09;5002182;28;20064;-64
2022/09/15 09:07:24;;;;;;;14.32;5.72;;;;;;;19.91;58.49;100579.22;4993120;28;20058;-65
2022/09/15 09:09:56;;;;;;;15.00;5.30;;;;;;;20.06;58.41;100578.19;4996423;28;20069;-65
2022/09/15 09:12:42;;;;;;;14.07;5.30;;;;;;;20.04;58.46;100572.16;4992148;28;20050;-64
2022/09/15 09:15:33;;;;;;;8.95;4.10;;;;;;;19.94;56.76;100570.06;4991886;28;20058;-65
2022/09/15 09:18:10;;;;;;;15.38;6.13;;;;;;;20.02;57.40;100578.16;5018792;28;20053;-64
2022/09/15 09:20:40;;;;;;;19.13;5.63;;;;;;;20.08;57.31;100575.81;4991040;28;20525;-64
2022/09/15 09:23:11;;;;;;;10.63;4.82;;;;;;;20.43;56.50;100576.28;4991650;28;20090;-64
2022/09/15 09:25:40;;;;;;;17.73;5.22;;;;;;;20.55;55.65;100578.81;4988146;28;20053;-66
2022/09/15 09:28:37;;;;;;;14.65;4.50;;;;;;;19.97;57.13;100574.88;5017279;28;20038;-63
2022/09/15 09:31:07;;;;;;;14.48;4.95;;;;;;;19.75;58.70;100581.38;5019263;28;20069;-66
2022/09/15 09:33:43;;;;;;;16.00;4.77;;;;;;;19.88;58.22;100580.75;4992923;28;20063;-63
2022/09/15 09:36:14;;;;;;;12.23;4.40;;;;;;;19.98;57.63;100582.88;4994758;28;20665;-64
2022/09/15 09:38:44;;;;;;;11.13;3.78;;;;;;;19.96;57.06;100588.03;4990977;28;20049;-64
2022/09/15 09:41:14;;;;;;;10.02;4.53;;;;;;;19.83;57.75;100583.88;4993496;28;20402;-64
2022/09/15 09:43:43;;;;;;;12.13;4.85;;;;;;;20.43;57.30;100587.47;4991985;28;20053;-67
2022/09/15 09:46:13;;;;;;;10.88;5.22;;;;;;;20.47;56.58;100582.69;4994904;28;20042;-68
2022/09/15 09:49:02;;;;;;;8.80;4.18;;;;;;;20.60;56.48;100572.03;4983723;28;20050;-64
2022/09/15 09:51:38;;;;;;;11.18;4.72;;;;;;;20.70;56.06;100574.94;4997942;28;20054;-65
2022/09/15 09:54:10;;;;;;;11.68;4.88;;;;;;;20.62;55.68;100578.88;4998925;28;20046;-66
2022/09/15 09:56:39;;;;;;;10.32;5.40;;;;;;;20.52;57.54;100584.38;4987819;28;20046;-66
2022/09/15 09:59:38;;;;;;;12.30;5.35;;;;;;;20.75;56.86;100583.00;4994815;28;20042;-66
2022/09/15 10:02:17;;;;;;;13.90;5.75;;;;;;;21.01;55.95;100582.88;4990818;28;20055;-65
2022/09/15 10:04:52;;;;;;;15.05;6.53;;;;;;;20.91;55.74;100591.97;4991936;28;20109;-66
2022/09/15 10:07:26;;;;;;;12.10;5.65;;;;;;;20.72;56.63;100588.56;4988561;28;20065;-65
2022/09/15 10:09:56;;;;;;;13.30;6.32;;;;;;;20.52;56.56;100601.16;4993565;28;20065;-64
2022/09/15 10:12:31;;;;;;;18.13;5.95;;;;;;;19.93;58.09;100596.38;4994115;28;20056;-66
2022/09/15 10:15:02;;;;;;;13.00;4.90;;;;;;;19.78;59.06;100587.00;4992538;28;20553;-66
2022/09/15 10:17:39;;;;;;;9.75;4.47;;;;;;;20.34;57.55;100583.34;4989613;28;20054;-65
2022/09/15 10:20:27;;;;;;;13.93;4.40;;;;;;;20.60;56.75;100581.25;4990705;28;20185;-66
2022/09/15 10:23:28;;;;;;;16.27;4.50;;;;;;;20.66;56.26;100573.31;4995643;28;20691;-66
2022/09/15 10:26:17;;;;;;;9.57;4.82;;;;;;;20.61;55.99;100577.25;4972671;28;20078;-66
2022/09/15 10:28:44;;;;;;;13.38;3.63;;;;;;;21.14;55.04;100573.00;4998209;28;20046;-64
2022/09/15 10:31:26;;;;;;;11.40;3.30;;;;;;;21.15;53.57;100583.00;4971035;28;20505;-64
2022/09/15 10:33:54;;;;;;;14.43;5.25;;;;;;;20.62;54.74;100584.47;4976999;28;20061;-66
2022/09/15 10:36:23;;;;;;;14.65;5.20;;;;;;;20.62;55.15;100572.47;4991735;28;20045;-68
2022/09/15 10:39:19;;;;;;;21.77;7.57;;;;;;;20.84;54.03;100577.91;4994658;28;20778;-67
2022/09/15 10:42:03;;;;;;;37.42;11.13;;;;;;;20.95;54.83;100578.00;4994121;28;20045;-66
2022/09/15 10:44:33;;;;;;;42.15;11.68;;;;;;;21.36;53.92;100581.56;5017426;28;20060;-65
2022/09/15 10:47:52;;;;;;;43.00;13.02;;;;;;;20.73;54.53;100579.00;5018688;28;20050;-64
2022/09/15 10:50:26;;;;;;;15.23;4.23;;;;;;;21.01;54.05;100574.47;4952018;28;20514;-66
2022/09/15 10:53:38;;;;;;;20.67;5.97;;;;;;;21.10;52.89;100576.94;4989172;28;20046;-66
2022/09/15 10:56:34;;;;;;;15.18;5.22;;;;;;;21.47;52.45;100588.03;4923182;29;20051;-65
2022/09/15 10:59:17;;;;;;;7.95;2.70;;;;;;;20.92;52.42;100581.56;5003809;28;20166;-65
2022/09/15 11:02:15;;;;;;;6.53;3.08;;;;;;;20.94;52.92;100581.97;4989519;28;20058;-65
2022/09/15 11:04:52;;;;;;;9.43;3.50;;;;;;;21.31;52.34;100579.09;4989406;28;20494;-65
2022/09/15 11:07:22;;;;;;;13.85;3.75;;;;;;;21.77;51.61;100574.63;4980901;28;20046;-65
2022/09/15 11:09:51;;;;;;;;;;;;;;;21.96;50.14;100571.53;4990745;28;20064;-66
2022/09/15 11:12:47;;;;;;;9.27;3.83;;;;;;;22.19;49.95;100581.25;4987926;28;19933;-65
2022/09/15 11:15:42;;;;;;;7.60;3.00;;;;;;;21.85;50.03;100574.28;4990226;28;20052;-69
2022/09/15 11:18:12;;;;;;;7.75;2.85;;;;;;;21.07;52.36;100564.53;4994382;28;20037;-68
2022/09/15 11:21:01;;;;;;;8.30;2.55;;;;;;;21.14;52.28;100563.78;4993740;28;20053;-69
2022/09/15 11:23:53;;;;;;;7.45;2.67;;;;;;;21.57;51.27;100560.06;4992976;28;20046;-66
2022/09/15 11:26:26;;;;;;;6.88;2.67;;;;;;;21.93;50.90;100555.50;4990440;28;20065;-68
2022/09/15 11:29:15;;;;;;;9.05;2.55;;;;;;;21.66;50.91;100549.31;5018850;28;20073;-67
2022/09/15 11:31:43;;;;;;;24.48;4.38;;;;;;;21.68;51.23;100555.34;4997321;28;20054;-67
2022/09/15 11:34:21;;;;;;;41.90;5.75;;;;;;;21.98;50.97;100549.53;5010003;28;20042;-68
2022/09/15 11:36:54;;;;;;;38.78;5.85;;;;;;;21.98;50.68;100555.94;4995768;28;20418;-67
2022/09/15 11:39:22;;;;;;;39.95;5.82;;;;;;;22.46;49.57;100552.88;4976665;28;20050;-67
2022/09/15 11:41:56;;;;;;;36.60;5.55;;;;;;;23.06;47.87;100550.97;4979665;28;20058;-65
2022/09/15 11:44:27;;;;;;;35.40;4.43;;;;;;;22.75;48.79;100552.56;4992238;28;20461;-65
2022/09/15 11:47:22;;;;;;;25.38;3.80;;;;;;;21.96;48.18;100558.34;4991587;28;20070;-67